Strona główna
METAR-TAF:

METAR-TAF

Lotnisko :

Port lotniczy Bahrajn

Bahrajn, Bahrajn

Szerokość geograficzna: 26-16N, Długość geograficzna: 050-39E, wysokość: 2 m

Aktualna obserwacja pogody

Raport powstał 25 minut temu, godzina 21:00 UTC
Wiatr 5 kt od zachód
Temperatura 34°C
Wilgotność 60%
Ciśnienie 996 hPa
Widzialność 10 km lub więcej
Brak chmur poniżej 1500 m i brak chmur cumulonimbus

METAR: OBBI 172100Z 27005KT CAVOK 34/25 Q0996 NOSIG

czas: 00:25 (21:25 UTC)

Prognoza

Raport powstał 4 godziny i 25 minut temu, godzina 17:00 UTC
Prognoza ważna od 17 godzina 18 UTC do 19 godzina 00 UTC
Wiatr 8 kt od zachód
Widzialność 10 km lub więcej
Brak chmur poniżej 1500 m i brak chmur cumulonimbus
Stopniowe zmiany
od 18 godzina 04 UTC do 18 godzina 06 UTC
Wiatr 16 kt od północno-północny zachód
Stopniowe zmiany
od 18 godzina 18 UTC do 18 godzina 20 UTC
Wiatr 7 kt od zachód

TAF: OBBI 171700Z 1718/1900 28008KT CAVOK BECMG 1804/1806 34016KT BECMG 1818/1820 28007KT

Obserwacja i prognoza pogody dla ponad 4000 lotnisk (raport METAR i TAF).

Dostępne stacje oznaczono żółtymi i czerwonymi punktami na mapie.

Najedź kursorem aby zobaczyć nazwę stacji.

Kliknij aby zobaczyć obserwacje i prognozy pogody.

Aby zmienić mapę: kliknij na zielony przycisk z czarnym krzyżykiem, aby powiększyć; na zielony przycisk z myślnikiem, aby pomniejszyć; na zielone strzałki, aby przejść do map sąsiednich.


METAR-TAF: